createdAt,value
2022-12-23T00:02:42.445Z,35.20
2022-12-23T00:05:34.157Z,44.93
2022-12-23T00:08:23.939Z,32.43
2022-12-23T00:11:10.471Z,33.87
2022-12-23T00:13:56.972Z,24.57
2022-12-23T00:16:43.574Z,23.83
2022-12-23T00:19:30.100Z,50.43
2022-12-23T00:22:16.636Z,15.07
2022-12-23T00:25:03.270Z,12.53
2022-12-23T00:27:50.804Z,14.87
2022-12-23T00:30:37.292Z,14.13
2022-12-23T00:33:23.808Z,17.63
2022-12-23T00:36:10.380Z,8.23
2022-12-23T00:38:56.946Z,9.97
2022-12-23T00:41:43.472Z,7.13
2022-12-23T00:44:30.007Z,10.80
2022-12-23T00:47:16.698Z,6.57
2022-12-23T00:50:03.249Z,9.60
2022-12-23T00:52:49.813Z,12.73
2022-12-23T00:55:36.347Z,11.63
2022-12-23T00:58:22.901Z,14.63
2022-12-23T01:01:09.419Z,15.17
2022-12-23T01:03:55.990Z,13.47
2022-12-23T01:06:42.502Z,14.20
2022-12-23T01:09:28.999Z,14.30
2022-12-23T01:12:15.532Z,14.83
2022-12-23T01:15:02.032Z,42.07
2022-12-23T01:17:48.590Z,11.63
2022-12-23T01:20:35.118Z,11.80
2022-12-23T01:23:21.674Z,11.87
2022-12-23T01:26:08.238Z,16.80
2022-12-23T01:28:54.763Z,13.33
2022-12-23T01:31:41.374Z,15.70
2022-12-23T01:34:34.273Z,12.90
2022-12-23T01:37:22.814Z,13.03
2022-12-23T01:40:09.344Z,11.30
2022-12-23T01:42:55.867Z,11.20
2022-12-23T01:45:42.443Z,23.37
2022-12-23T01:48:29.118Z,13.00
2022-12-23T01:51:15.665Z,10.70
2022-12-23T01:54:02.206Z,14.30
2022-12-23T01:56:48.728Z,12.70
2022-12-23T01:59:35.287Z,20.37
2022-12-23T02:02:21.982Z,12.63
2022-12-23T02:05:08.789Z,8.13
2022-12-23T02:07:55.278Z,9.90
2022-12-23T02:10:42.004Z,9.73
2022-12-23T02:13:28.489Z,7.47
2022-12-23T02:16:15.165Z,11.40
2022-12-23T02:19:01.723Z,13.33
2022-12-23T02:21:48.274Z,10.47
2022-12-23T02:24:34.900Z,13.73
2022-12-23T02:27:21.407Z,11.07
2022-12-23T02:30:07.967Z,12.27
2022-12-23T02:32:54.547Z,13.20
2022-12-23T02:35:41.052Z,18.73
2022-12-23T02:38:27.566Z,9.73
2022-12-23T02:41:14.085Z,9.10
2022-12-23T02:44:00.625Z,14.17
2022-12-23T02:46:47.126Z,10.90
2022-12-23T02:49:34.166Z,14.67
2022-12-23T02:52:20.709Z,14.70
2022-12-23T02:55:07.191Z,8.77
2022-12-23T02:57:53.712Z,10.70
2022-12-23T03:00:40.243Z,92.03
2022-12-23T03:03:26.846Z,9.70
2022-12-23T03:06:13.380Z,10.50
2022-12-23T03:09:00.143Z,10.90
2022-12-23T03:11:46.694Z,20.70
2022-12-23T03:14:33.199Z,12.40
2022-12-23T03:17:19.740Z,34.20
2022-12-23T03:20:06.287Z,18.73
2022-12-23T03:22:52.923Z,79.83
2022-12-23T03:25:39.435Z,12.80
2022-12-23T03:28:25.944Z,100.77
2022-12-23T03:31:12.478Z,26.80
2022-12-23T03:33:59.080Z,68.50
2022-12-23T03:36:45.565Z,65.60
2022-12-23T03:39:32.137Z,44.63
2022-12-23T03:42:18.664Z,23.47
2022-12-23T03:45:37.081Z,17.57
2022-12-23T03:48:11.642Z,87.67
2022-12-23T03:50:58.137Z,12.03
2022-12-23T03:53:44.696Z,26.30
2022-12-23T03:56:31.241Z,23.50
2022-12-23T03:59:17.812Z,59.17
2022-12-23T04:02:04.436Z,22.40
2022-12-23T04:04:51.126Z,147.00
2022-12-23T04:07:37.608Z,179.97
2022-12-23T04:10:24.307Z,134.40
2022-12-23T04:13:10.840Z,19.63
2022-12-23T04:15:57.466Z,59.97
2022-12-23T04:18:44.040Z,60.17
2022-12-23T04:21:30.654Z,177.17
2022-12-23T04:24:17.188Z,166.43
2022-12-23T04:27:03.745Z,194.97
2022-12-23T04:29:50.236Z,166.60
2022-12-23T04:32:36.796Z,378.93
2022-12-23T04:35:23.318Z,421.90
2022-12-23T04:38:09.887Z,232.70
2022-12-23T04:40:56.431Z,153.13
2022-12-23T04:43:45.414Z,194.53
2022-12-23T04:46:34.399Z,157.47
2022-12-23T04:49:20.977Z,155.30
2022-12-23T04:52:07.487Z,197.20
2022-12-23T04:54:53.966Z,239.17
2022-12-23T04:57:40.483Z,272.43
2022-12-23T05:00:27.032Z,231.33
2022-12-23T05:03:13.704Z,98.07
2022-12-23T05:06:00.311Z,208.00
2022-12-23T05:08:46.824Z,141.03
2022-12-23T05:11:37.121Z,98.07
2022-12-23T05:14:26.776Z,51.57
2022-12-23T05:17:13.297Z,161.40
2022-12-23T05:19:59.827Z,121.80
2022-12-23T05:22:46.411Z,109.83
2022-12-23T05:25:32.893Z,81.00
2022-12-23T05:28:19.409Z,25.07
2022-12-23T05:31:05.945Z,27.97
2022-12-23T05:33:52.652Z,16.60
2022-12-23T05:36:39.289Z,13.53
2022-12-23T05:39:25.848Z,13.03
2022-12-23T05:42:12.340Z,10.83
2022-12-23T05:44:58.862Z,8.63
2022-12-23T05:47:45.393Z,12.60
2022-12-23T05:50:31.925Z,9.60
2022-12-23T05:53:18.455Z,11.40
2022-12-23T05:56:04.993Z,8.17
2022-12-23T05:58:51.556Z,9.80
2022-12-23T06:01:38.568Z,12.37
2022-12-23T06:04:25.273Z,13.83
2022-12-23T06:07:11.905Z,12.60
2022-12-23T06:09:58.436Z,9.00
2022-12-23T06:12:45.149Z,10.50
2022-12-23T06:15:31.685Z,6.33
2022-12-23T06:18:18.274Z,8.00
2022-12-23T06:21:04.818Z,5.53
2022-12-23T06:23:51.332Z,7.40
2022-12-23T06:26:37.834Z,9.90
2022-12-23T06:29:24.477Z,10.73
2022-12-23T06:32:11.066Z,28.87
2022-12-23T06:34:57.685Z,9.13
2022-12-23T06:37:44.250Z,5.80
2022-12-23T06:40:30.819Z,7.90
2022-12-23T06:43:18.310Z,5.73
2022-12-23T06:46:05.245Z,20.17
2022-12-23T06:48:51.855Z,24.43
2022-12-23T06:51:38.387Z,8.37
2022-12-23T06:54:24.902Z,4.03
2022-12-23T06:57:11.428Z,4.10
2022-12-23T06:59:57.994Z,5.07
2022-12-23T07:02:44.693Z,4.50
2022-12-23T07:05:37.000Z,19.77
2022-12-23T07:08:24.293Z,42.70
2022-12-23T07:11:10.869Z,11.47
2022-12-23T07:13:57.448Z,32.37
2022-12-23T07:16:43.998Z,78.43
2022-12-23T07:19:30.521Z,113.43
2022-12-23T07:22:17.065Z,72.53
2022-12-23T07:25:03.571Z,68.20
2022-12-23T07:27:50.141Z,44.47
2022-12-23T07:30:36.619Z,49.53
2022-12-23T07:33:23.130Z,46.47
2022-12-23T07:36:09.650Z,104.33
2022-12-23T07:38:56.183Z,46.70
2022-12-23T07:41:42.722Z,32.80
2022-12-23T07:44:29.288Z,94.07
2022-12-23T07:47:15.832Z,96.73
2022-12-23T07:50:02.394Z,124.70
2022-12-23T07:52:48.917Z,20.30
2022-12-23T07:55:35.519Z,72.57
2022-12-23T07:58:22.056Z,144.97
2022-12-23T08:01:08.687Z,102.37
2022-12-23T08:03:55.327Z,150.70
2022-12-23T08:06:42.996Z,113.77
2022-12-23T08:09:29.528Z,82.03
2022-12-23T08:12:16.058Z,85.37
2022-12-23T08:15:04.964Z,60.93
2022-12-23T08:17:51.540Z,192.97
2022-12-23T08:20:38.067Z,66.17
2022-12-23T08:23:25.177Z,91.33
2022-12-23T08:26:11.733Z,162.30
2022-12-23T08:28:58.302Z,128.70
2022-12-23T08:31:44.788Z,72.60
2022-12-23T08:34:31.310Z,190.63
2022-12-23T08:37:17.795Z,122.43
2022-12-23T08:40:04.349Z,159.10
2022-12-23T08:42:50.878Z,200.87
2022-12-23T08:45:37.444Z,127.37
2022-12-23T08:48:23.931Z,128.77
2022-12-23T08:51:10.451Z,234.13
2022-12-23T08:54:00.414Z,142.37
2022-12-23T08:56:47.800Z,169.23
2022-12-23T08:59:34.349Z,135.63
2022-12-23T09:02:20.989Z,105.10
2022-12-23T09:05:07.945Z,95.13
2022-12-23T09:07:54.478Z,84.47
2022-12-23T09:10:41.148Z,165.17
2022-12-23T09:13:34.902Z,206.40
2022-12-23T09:16:22.468Z,161.43
2022-12-23T09:19:09.006Z,213.10
2022-12-23T09:21:55.511Z,188.23
2022-12-23T09:24:42.036Z,200.47
2022-12-23T09:27:28.556Z,150.53
2022-12-23T09:30:15.078Z,260.27
2022-12-23T09:33:01.630Z,284.07
2022-12-23T09:35:48.137Z,252.00
2022-12-23T09:38:34.651Z,212.40
2022-12-23T09:41:21.182Z,163.60
2022-12-23T09:44:07.733Z,324.00
2022-12-23T09:46:54.316Z,254.37
2022-12-23T09:49:40.842Z,306.80
2022-12-23T09:52:27.326Z,208.90
2022-12-23T09:55:13.850Z,155.70
2022-12-23T09:58:00.391Z,98.20
2022-12-23T10:00:46.959Z,203.50
2022-12-23T10:03:33.763Z,377.53
2022-12-23T10:06:20.532Z,32.83
2022-12-23T10:09:07.072Z,28.73
2022-12-23T10:11:53.634Z,245.90
2022-12-23T10:14:40.156Z,42.43
2022-12-23T10:17:26.663Z,269.90
2022-12-23T10:20:13.180Z,43.40
2022-12-23T10:22:59.712Z,27.97
2022-12-23T10:25:46.220Z,19.60
2022-12-23T10:28:32.740Z,11.97
2022-12-23T10:34:25.764Z,15.50
2022-12-23T10:37:12.443Z,12.10
2022-12-23T10:39:58.980Z,13.73
2022-12-23T10:42:45.511Z,10.00
2022-12-23T10:45:32.042Z,5.77
2022-12-23T10:48:18.537Z,7.83
2022-12-23T10:51:05.062Z,14.13
2022-12-23T10:53:51.605Z,44.83
2022-12-23T10:56:38.185Z,27.10
2022-12-23T10:59:24.665Z,11.70
2022-12-23T11:02:11.336Z,12.20
2022-12-23T11:04:57.958Z,22.73
2022-12-23T11:07:45.710Z,11.93
2022-12-23T11:10:32.615Z,69.47
2022-12-23T11:13:19.138Z,11.90
2022-12-23T11:16:05.655Z,37.03
2022-12-23T11:18:52.204Z,54.30
2022-12-23T11:21:38.687Z,38.80
2022-12-23T11:24:25.235Z,181.37
2022-12-23T11:27:11.772Z,161.27
2022-12-23T11:29:58.333Z,233.97
2022-12-23T11:32:44.991Z,257.50
2022-12-23T11:35:31.687Z,321.57
2022-12-23T11:38:18.341Z,334.23
2022-12-23T11:41:04.967Z,309.67
2022-12-23T11:43:51.543Z,238.03
2022-12-23T11:46:39.023Z,339.87
2022-12-23T11:49:26.699Z,158.53
2022-12-23T11:52:13.301Z,324.27
2022-12-23T11:55:00.163Z,200.80
2022-12-23T11:57:46.680Z,334.23
2022-12-23T12:00:33.199Z,219.40
2022-12-23T12:03:19.794Z,139.13
2022-12-23T12:06:06.394Z,238.93
2022-12-23T12:08:52.918Z,335.80
2022-12-23T12:11:39.438Z,352.70
2022-12-23T12:14:25.933Z,332.13
2022-12-23T12:17:12.567Z,109.63
2022-12-23T12:19:59.089Z,174.87
2022-12-23T12:22:45.645Z,277.13
2022-12-23T12:25:36.369Z,115.47
2022-12-23T12:28:26.041Z,338.37
2022-12-23T12:31:12.815Z,736.47
2022-12-23T12:33:59.459Z,234.60
2022-12-23T12:36:46.090Z,227.23
2022-12-23T12:39:32.689Z,335.90
2022-12-23T12:42:19.237Z,416.80
2022-12-23T12:45:05.786Z,372.57
2022-12-23T12:47:55.803Z,318.60
2022-12-23T12:50:44.884Z,198.57
2022-12-23T12:53:31.467Z,245.83
2022-12-23T12:56:18.058Z,252.38
2022-12-23T12:59:04.661Z,352.63
2022-12-23T13:01:51.378Z,107.63
2022-12-23T13:04:38.008Z,332.07
2022-12-23T13:07:24.697Z,468.10
2022-12-23T13:10:11.212Z,334.33
2022-12-23T13:12:57.779Z,298.77
2022-12-23T13:15:44.314Z,433.10
2022-12-23T13:18:30.838Z,67.07
2022-12-23T13:21:17.416Z,130.17
2022-12-23T13:24:04.491Z,395.37
2022-12-23T13:26:51.192Z,264.23
2022-12-23T13:29:37.720Z,137.17
2022-12-23T13:32:24.302Z,103.93
2022-12-23T13:35:10.838Z,137.57
2022-12-23T13:37:57.382Z,27.10
2022-12-23T13:40:43.926Z,405.30
2022-12-23T13:43:30.463Z,108.80
2022-12-23T13:46:16.972Z,107.20
2022-12-23T13:49:03.514Z,226.23
2022-12-23T13:51:50.004Z,183.27
2022-12-23T13:54:36.555Z,382.27
2022-12-23T13:57:23.367Z,145.93
2022-12-23T14:00:09.889Z,177.53
2022-12-23T14:02:56.613Z,283.63
2022-12-23T14:05:43.202Z,493.33
2022-12-23T14:08:29.739Z,338.27
2022-12-23T14:11:16.250Z,138.33
2022-12-23T14:14:02.784Z,254.10
2022-12-23T14:16:49.324Z,215.50
2022-12-23T14:19:35.817Z,237.73
2022-12-23T14:22:22.363Z,157.00
2022-12-23T14:25:08.835Z,234.60
2022-12-23T14:27:55.364Z,188.07
2022-12-23T14:30:41.881Z,354.83
2022-12-23T14:33:28.524Z,131.90
2022-12-23T14:36:15.146Z,168.00
2022-12-23T14:39:01.712Z,374.53
2022-12-23T14:41:48.268Z,98.50
2022-12-23T14:44:34.796Z,177.63
2022-12-23T14:47:22.727Z,238.53
2022-12-23T14:50:09.389Z,139.93
2022-12-23T14:52:55.889Z,122.80
2022-12-23T14:55:42.606Z,98.00
2022-12-23T14:58:29.266Z,156.30
2022-12-23T15:01:15.789Z,76.07
2022-12-23T15:04:02.330Z,54.40
2022-12-23T15:06:48.853Z,117.43
2022-12-23T15:09:35.418Z,90.17
2022-12-23T15:12:21.954Z,105.83
2022-12-23T15:15:08.501Z,159.73
2022-12-23T15:17:55.107Z,290.03
2022-12-23T15:20:41.711Z,284.80
2022-12-23T15:23:28.253Z,223.27
2022-12-23T15:26:14.973Z,121.27
2022-12-23T15:29:01.472Z,74.17
2022-12-23T15:31:48.096Z,64.27
2022-12-23T15:34:34.651Z,94.27
2022-12-23T15:37:21.182Z,76.87
2022-12-23T15:40:13.154Z,224.53
2022-12-23T15:43:00.078Z,218.77
2022-12-23T15:45:46.608Z,113.63
2022-12-23T15:48:33.158Z,152.93
2022-12-23T15:51:42.906Z,147.90
2022-12-23T15:54:26.151Z,148.77
2022-12-23T15:57:12.704Z,86.07
2022-12-23T15:59:59.242Z,107.63
2022-12-23T16:03:03.394Z,175.27
2022-12-23T16:05:52.093Z,263.43
2022-12-23T16:08:39.149Z,194.80
2022-12-23T16:11:25.708Z,316.73
2022-12-23T16:14:12.236Z,87.70
2022-12-23T16:16:58.764Z,285.63
2022-12-23T16:19:45.246Z,323.47
2022-12-23T16:22:31.787Z,173.27
2022-12-23T16:25:18.291Z,249.03
2022-12-23T16:28:04.840Z,227.30
2022-12-23T16:30:51.512Z,258.87
2022-12-23T16:33:38.256Z,313.70
2022-12-23T16:36:24.932Z,368.43
2022-12-23T16:39:11.558Z,308.83
2022-12-23T16:41:58.101Z,327.80
2022-12-23T16:44:44.615Z,298.05
2022-12-23T16:47:31.217Z,460.57
2022-12-23T16:50:17.871Z,254.07
2022-12-23T16:53:04.403Z,256.90
2022-12-23T16:55:56.668Z,231.07
2022-12-23T16:58:46.670Z,237.50
2022-12-23T17:01:33.290Z,228.23
2022-12-23T17:04:19.853Z,215.53
2022-12-23T17:07:06.343Z,75.00
2022-12-23T17:09:52.906Z,247.87
2022-12-23T17:12:39.404Z,163.83
2022-12-23T17:15:25.951Z,11.13
2022-12-23T17:18:13.451Z,8.10
2022-12-23T17:21:00.016Z,8.23
2022-12-23T17:23:46.583Z,12.80
2022-12-23T17:26:33.150Z,17.00
2022-12-23T17:29:20.711Z,10.33
2022-12-23T17:32:07.288Z,9.50
2022-12-23T17:34:53.860Z,10.53
2022-12-23T17:37:40.440Z,8.57
2022-12-23T17:40:26.968Z,37.00
2022-12-23T17:43:13.603Z,15.03
2022-12-23T17:46:00.209Z,67.73
2022-12-23T17:48:46.785Z,35.53
2022-12-23T17:51:33.428Z,142.53
2022-12-23T17:54:20.115Z,341.50
2022-12-23T17:57:06.642Z,192.73
2022-12-23T17:59:53.275Z,310.03
2022-12-23T18:02:39.894Z,50.07
2022-12-23T18:05:26.491Z,77.77
2022-12-23T18:08:13.021Z,76.30
2022-12-23T18:10:59.559Z,62.63
2022-12-23T18:13:46.049Z,94.83
2022-12-23T18:16:32.579Z,31.17
2022-12-23T18:19:19.148Z,68.90
2022-12-23T18:22:05.716Z,149.60
2022-12-23T18:24:58.896Z,83.33
2022-12-23T18:27:45.990Z,167.73
2022-12-23T18:30:32.556Z,93.37
2022-12-23T18:33:19.146Z,10.77
2022-12-23T18:36:05.787Z,71.70
2022-12-23T18:38:52.335Z,25.17
2022-12-23T18:41:38.890Z,45.33
2022-12-23T18:44:25.372Z,158.47
2022-12-23T18:47:11.907Z,115.13
2022-12-23T18:49:58.415Z,27.70
2022-12-23T18:52:44.932Z,61.00
2022-12-23T18:55:31.506Z,41.80
2022-12-23T18:58:18.029Z,65.07
2022-12-23T19:01:04.630Z,101.93
2022-12-23T19:03:51.295Z,22.87
2022-12-23T19:06:37.851Z,44.57
2022-12-23T19:09:24.436Z,13.13
2022-12-23T19:12:11.943Z,49.90
2022-12-23T19:14:58.672Z,39.23
2022-12-23T19:17:45.208Z,181.07
2022-12-23T19:20:32.755Z,26.87
2022-12-23T19:23:19.234Z,28.13
2022-12-23T19:26:05.760Z,28.93
2022-12-23T19:28:53.267Z,82.40
2022-12-23T19:31:39.863Z,36.07
2022-12-23T19:34:26.406Z,12.67
2022-12-23T19:37:12.918Z,79.10
2022-12-23T19:39:59.471Z,31.23
2022-12-23T19:42:46.058Z,10.37
2022-12-23T19:45:32.737Z,14.63
2022-12-23T19:48:19.346Z,20.70
2022-12-23T19:51:05.993Z,24.17
2022-12-23T19:53:52.560Z,16.70
2022-12-23T19:56:39.100Z,16.37
2022-12-23T19:59:25.618Z,24.57
2022-12-23T20:02:12.213Z,16.03
2022-12-23T20:04:58.811Z,15.00
2022-12-23T20:07:45.321Z,16.03
2022-12-23T20:10:31.816Z,13.27
2022-12-23T20:13:18.367Z,16.67
2022-12-23T20:16:04.959Z,12.20
2022-12-23T20:18:51.540Z,12.00
2022-12-23T20:21:38.138Z,8.53
2022-12-23T20:24:24.635Z,8.57
2022-12-23T20:27:13.195Z,7.73
2022-12-23T20:30:01.406Z,5.17
2022-12-23T20:32:48.038Z,5.70
2022-12-23T20:35:34.605Z,6.03
2022-12-23T20:38:21.122Z,5.23
2022-12-23T20:41:07.633Z,4.10
2022-12-23T20:44:31.611Z,4.27
2022-12-23T20:47:00.939Z,5.10
2022-12-23T20:49:47.519Z,5.10
2022-12-23T20:52:35.585Z,4.30
2022-12-23T20:55:22.115Z,3.53
2022-12-23T20:58:08.635Z,3.73
2022-12-23T21:00:55.384Z,3.07
2022-12-23T21:03:41.950Z,3.43
2022-12-23T21:06:28.498Z,2.93
2022-12-23T21:09:14.991Z,2.90
2022-12-23T21:12:02.494Z,2.97
2022-12-23T21:14:48.974Z,3.17
2022-12-23T21:17:35.499Z,2.50
2022-12-23T21:20:21.991Z,2.80
2022-12-23T21:23:08.501Z,2.23
2022-12-23T21:25:55.017Z,3.63
2022-12-23T21:28:41.644Z,3.33
2022-12-23T21:31:28.243Z,2.87
2022-12-23T21:34:14.793Z,2.30
2022-12-23T21:37:01.352Z,2.00
2022-12-23T21:39:47.914Z,1.87
2022-12-23T21:42:34.421Z,2.70
2022-12-23T21:45:20.991Z,1.77
2022-12-23T21:48:07.479Z,1.70
2022-12-23T21:50:53.993Z,1.70
2022-12-23T21:53:40.543Z,1.70
2022-12-23T21:56:27.045Z,1.77
2022-12-23T21:59:13.603Z,2.13
2022-12-23T22:02:00.235Z,1.10
2022-12-23T22:04:46.817Z,2.07
2022-12-23T22:07:33.393Z,0.70
2022-12-23T22:10:19.872Z,0.90
2022-12-23T22:13:06.421Z,1.53
2022-12-23T22:15:53.001Z,0.40
2022-12-23T22:18:39.625Z,1.33
2022-12-23T22:21:26.110Z,0.50
2022-12-23T22:24:12.867Z,0.50
2022-12-23T22:26:59.354Z,0.40
2022-12-23T22:29:45.880Z,0.73
2022-12-23T22:32:33.932Z,0.20
2022-12-23T22:35:22.096Z,0.50
2022-12-23T22:38:08.625Z,0.50
2022-12-23T22:40:55.163Z,0.30
2022-12-23T22:43:42.698Z,1.57
2022-12-23T22:46:29.313Z,1.10
2022-12-23T22:49:16.022Z,1.13
2022-12-23T22:52:02.562Z,1.53
2022-12-23T22:54:49.128Z,0.60
2022-12-23T22:57:35.666Z,0.40
2022-12-23T23:00:22.202Z,0.30
2022-12-23T23:03:08.732Z,0.57
2022-12-23T23:05:55.364Z,1.07
2022-12-23T23:08:41.964Z,1.07
2022-12-23T23:11:28.556Z,2.07
2022-12-23T23:14:15.144Z,1.03
2022-12-23T23:17:02.741Z,0.80
2022-12-23T23:19:49.364Z,0.50
2022-12-23T23:22:35.898Z,0.87
2022-12-23T23:25:22.418Z,1.90
2022-12-23T23:28:08.963Z,1.67
2022-12-23T23:31:16.779Z,2.30
2022-12-23T23:34:02.041Z,1.40
2022-12-23T23:36:48.550Z,1.23
2022-12-23T23:39:35.097Z,1.40
2022-12-23T23:42:21.614Z,1.93
2022-12-23T23:45:08.139Z,2.03
2022-12-23T23:47:54.652Z,2.13
2022-12-23T23:50:41.178Z,3.20
2022-12-23T23:53:27.748Z,2.30
2022-12-23T23:56:14.291Z,2.40
2022-12-23T23:59:00.889Z,2.40
